Time;durP1;ratioP1;P1;durP2;ratioP2;P2;SDS_P1;SDS_P2;PMS_P1;PMS_P2;Temp;Humidity;BMP_temperature;BMP_pressure;BME280_temperature;BME280_humidity;BME280_pressure;Samples;Min_cycle;Max_cycle;Signal;HPM_P1;HPM_P2
2023/10/16 00:02:03;;;;;;;3.08;1.50;;;;;;;;;;4832943;29;20458;-79
2023/10/16 00:04:51;;;;;;;11.63;2.15;;;;;;;;;;4832845;29;20912;-76
2023/10/16 00:07:36;;;;;;;2.30;1.25;;;;;;;;;;4832086;29;20053;-77
2023/10/16 00:10:21;;;;;;;4.60;1.80;;;;;;;;;;4832256;29;20042;-77
2023/10/16 00:13:16;;;;;;;2.83;1.58;;;;;;;;;;4833049;29;20049;-79
2023/10/16 00:16:05;;;;;;;3.53;1.95;;;;;;;;;;4832294;29;20057;-78
2023/10/16 00:18:53;;;;;;;3.15;1.70;;;;;;;;;;4828544;29;20057;-77
2023/10/16 00:21:44;;;;;;;4.05;1.95;;;;;;;;;;4828977;29;20367;-80
2023/10/16 00:24:32;;;;;;;3.80;1.73;;;;;;;;;;4830095;29;20057;-76
2023/10/16 00:27:18;;;;;;;7.35;2.10;;;;;;;;;;4832073;29;20053;-79
2023/10/16 00:30:07;;;;;;;7.45;2.10;;;;;;;;;;4827028;29;20053;-78
2023/10/16 00:32:53;;;;;;;5.47;1.85;;;;;;;;;;4819010;29;20100;-79
2023/10/16 00:35:41;;;;;;;4.65;1.98;;;;;;;;;;4833961;29;20514;-79
2023/10/16 00:38:26;;;;;;;5.10;2.00;;;;;;;;;;4826276;29;20398;-79
2023/10/16 00:44:00;;;;;;;3.70;1.60;;;;;;;;;;4825343;29;20489;-78
2023/10/16 00:46:48;;;;;;;4.00;2.20;;;;;;;;;;4824839;29;20386;-79
2023/10/16 00:49:34;;;;;;;8.55;1.60;;;;;;;;;;4817045;29;20053;-79
2023/10/16 00:52:20;;;;;;;2.78;1.50;;;;;;;;;;4826256;29;20635;-77
2023/10/16 00:55:11;;;;;;;6.90;1.92;;;;;;;;;;4825887;29;20050;-77
2023/10/16 00:57:57;;;;;;;3.95;1.90;;;;;;;;;;4817794;29;20053;-82
2023/10/16 01:00:45;;;;;;;3.10;1.80;;;;;;;;;;4826017;29;20054;-77
2023/10/16 01:03:32;;;;;;;3.50;1.98;;;;;;;;;;4818567;29;20053;-79
2023/10/16 01:06:36;;;;;;;3.67;2.10;;;;;;;;;;4831523;29;20049;-78
2023/10/16 01:09:24;;;;;;;7.05;1.90;;;;;;;;;;4832350;29;20462;-79
2023/10/16 01:12:13;;;;;;;2.40;1.60;;;;;;;;;;4817851;29;20092;-77
2023/10/16 01:14:57;;;;;;;4.80;2.25;;;;;;;;;;4817546;29;20050;-76
2023/10/16 01:17:43;;;;;;;4.43;2.05;;;;;;;;;;4817478;29;20061;-76
2023/10/16 01:20:28;;;;;;;6.72;1.60;;;;;;;;;;4825643;29;20053;-76
2023/10/16 01:23:20;;;;;;;4.30;1.77;;;;;;;;;;4825377;29;20037;-81
2023/10/16 01:26:05;;;;;;;4.72;1.85;;;;;;;;;;4805751;29;20404;-81
2023/10/16 01:28:54;;;;;;;4.65;1.80;;;;;;;;;;4817000;29;20050;-77
2023/10/16 01:31:40;;;;;;;4.43;1.50;;;;;;;;;;4824662;29;20049;-77
2023/10/16 01:34:25;;;;;;;11.45;2.00;;;;;;;;;;4830981;29;20437;-76
2023/10/16 01:37:12;;;;;;;2.92;1.45;;;;;;;;;;4824535;29;20417;-77
2023/10/16 01:40:47;;;;;;;3.05;1.60;;;;;;;;;;4816864;29;20409;-77
2023/10/16 01:43:05;;;;;;;4.82;1.73;;;;;;;;;;4823311;29;20498;-76
2023/10/16 01:45:51;;;;;;;4.80;2.17;;;;;;;;;;4817001;29;20042;-78
2023/10/16 01:48:40;;;;;;;3.10;1.73;;;;;;;;;;4830877;29;20050;-76
2023/10/16 01:51:29;;;;;;;3.28;1.42;;;;;;;;;;4816977;29;20447;-78
2023/10/16 01:54:15;;;;;;;2.42;1.50;;;;;;;;;;4817956;29;20054;-78
2023/10/16 01:57:00;;;;;;;2.75;1.85;;;;;;;;;;4817762;29;20336;-76
2023/10/16 01:59:47;;;;;;;4.15;1.65;;;;;;;;;;4817790;29;20041;-77
2023/10/16 02:02:32;;;;;;;6.03;1.80;;;;;;;;;;4801189;29;20478;-76
2023/10/16 02:05:18;;;;;;;6.50;2.70;;;;;;;;;;4830232;29;20407;-77
2023/10/16 02:08:07;;;;;;;4.05;2.03;;;;;;;;;;4816079;29;20050;-76
2023/10/16 02:10:52;;;;;;;3.28;1.80;;;;;;;;;;4816539;29;20379;-78
2023/10/16 02:13:37;;;;;;;3.10;1.80;;;;;;;;;;4816252;29;20391;-76
2023/10/16 02:16:25;;;;;;;3.28;1.75;;;;;;;;;;4817268;29;20049;-80
2023/10/16 02:19:11;;;;;;;5.30;2.05;;;;;;;;;;4825318;29;20049;-78
2023/10/16 02:21:58;;;;;;;3.03;1.80;;;;;;;;;;4824559;29;20379;-78
2023/10/16 02:24:44;;;;;;;3.97;1.85;;;;;;;;;;4824326;29;20049;-77
2023/10/16 02:27:28;;;;;;;3.20;1.80;;;;;;;;;;4816359;29;20403;-79
2023/10/16 02:36:02;;;;;;;5.43;2.05;;;;;;;;;;4822340;29;20417;-80
2023/10/16 02:38:48;;;;;;;4.90;2.35;;;;;;;;;;4831061;29;20050;-77
2023/10/16 02:41:34;;;;;;;8.95;2.95;;;;;;;;;;4830587;29;20050;-77
2023/10/16 02:44:22;;;;;;;4.18;2.15;;;;;;;;;;4831299;29;20386;-78
2023/10/16 02:47:08;;;;;;;4.47;1.85;;;;;;;;;;4824155;29;20054;-77
2023/10/16 02:49:52;;;;;;;4.03;1.73;;;;;;;;;;4815906;29;20647;-78
2023/10/16 02:52:37;;;;;;;5.10;2.00;;;;;;;;;;4816105;29;20049;-77
2023/10/16 02:55:23;;;;;;;5.65;2.10;;;;;;;;;;4824143;29;20375;-78
2023/10/16 02:58:11;;;;;;;5.22;2.47;;;;;;;;;;4825068;29;20510;-79
2023/10/16 03:00:56;;;;;;;2.72;2.13;;;;;;;;;;4830776;29;20478;-79
2023/10/16 03:03:43;;;;;;;3.95;2.20;;;;;;;;;;4824414;29;20062;-78
2023/10/16 03:06:30;;;;;;;5.63;2.10;;;;;;;;;;4824429;29;20053;-77
2023/10/16 03:09:37;;;;;;;4.88;2.53;;;;;;;;;;4823893;29;20053;-78
2023/10/16 03:12:22;;;;;;;5.47;2.25;;;;;;;;;;4830543;29;20049;-78
2023/10/16 03:15:20;;;;;;;;;;;;;;;;;;4821910;29;20397;-77
2023/10/16 03:18:09;;;;;;;4.10;2.40;;;;;;;;;;4833297;29;20475;-76
2023/10/16 03:21:26;;;;;;;4.97;2.65;;;;;;;;;;4820228;29;20627;-80
2023/10/16 03:24:04;;;;;;;6.25;3.10;;;;;;;;;;4827138;29;20061;-78
2023/10/16 03:26:50;;;;;;;3.63;2.30;;;;;;;;;;4819674;29;20057;-77
2023/10/16 03:29:37;;;;;;;3.75;2.10;;;;;;;;;;4834175;29;20367;-78
2023/10/16 03:32:25;;;;;;;4.30;2.80;;;;;;;;;;4832847;29;20053;-79
2023/10/16 03:35:14;;;;;;;9.20;2.45;;;;;;;;;;4828204;29;20379;-78
2023/10/16 03:37:59;;;;;;;4.03;2.60;;;;;;;;;;4827994;29;20187;-80
2023/10/16 03:40:45;;;;;;;7.28;3.85;;;;;;;;;;4834708;29;20041;-78
2023/10/16 03:43:30;;;;;;;5.25;2.85;;;;;;;;;;4833912;29;20058;-77
2023/10/16 03:46:15;;;;;;;7.82;2.90;;;;;;;;;;4827279;29;20045;-78
2023/10/16 03:49:00;;;;;;;5.68;2.25;;;;;;;;;;4827627;29;20045;-77
2023/10/16 03:51:48;;;;;;;5.70;1.88;;;;;;;;;;4826535;29;20042;-78
2023/10/16 03:54:35;;;;;;;5.47;2.03;;;;;;;;;;4826917;29;20046;-77
2023/10/16 03:57:22;;;;;;;7.05;2.10;;;;;;;;;;4826808;29;20061;-79
2023/10/16 04:00:15;;;;;;;3.17;2.05;;;;;;;;;;4826860;29;20050;-77
2023/10/16 04:03:00;;;;;;;4.95;2.15;;;;;;;;;;4827182;29;20371;-78
2023/10/16 04:05:46;;;;;;;6.53;2.08;;;;;;;;;;4832463;29;20057;-80
2023/10/16 04:08:31;;;;;;;3.90;2.20;;;;;;;;;;4832412;29;20414;-79
2023/10/16 04:11:17;;;;;;;4.90;2.50;;;;;;;;;;4832432;29;20611;-78
2023/10/16 04:14:14;;;;;;;5.35;2.33;;;;;;;;;;4832533;29;20322;-79
2023/10/16 04:17:00;;;;;;;7.93;2.63;;;;;;;;;;4818408;29;20057;-77
2023/10/16 04:20:42;;;;;;;4.85;2.53;;;;;;;;;;4833255;29;20049;-80
2023/10/16 04:23:07;;;;;;;6.65;2.47;;;;;;;;;;4826409;29;20057;-77
2023/10/16 04:26:29;;;;;;;5.97;3.00;;;;;;;;;;4824752;29;20049;-78
2023/10/16 04:34:52;;;;;;;5.22;2.80;;;;;;;;;;4832865;29;20045;-77
2023/10/16 04:37:37;;;;;;;5.47;3.10;;;;;;;;;;4827368;29;20057;-80
2023/10/16 04:43:49;;;;;;;10.65;3.13;;;;;;;;;;4832246;29;20406;-78
2023/10/16 04:49:38;;;;;;;6.88;2.72;;;;;;;;;;4831528;29;20034;-78
2023/10/16 04:52:51;;;;;;;5.15;2.75;;;;;;;;;;4830886;29;20049;-78
2023/10/16 05:07:15;;;;;;;9.55;3.15;;;;;;;;;;4831528;29;20526;-78
2023/10/16 05:10:17;;;;;;;5.82;2.13;;;;;;;;;;4831317;29;20383;-78
2023/10/16 05:19:30;;;;;;;4.55;2.22;;;;;;;;;;4831827;29;20509;-77
2023/10/16 06:14:17;;;;;;;6.03;3.15;;;;;;;;;;4816914;29;20082;-79
2023/10/16 06:17:24;;;;;;;7.65;2.70;;;;;;;;;;4813863;29;20498;-79
2023/10/16 06:20:12;;;;;;;9.60;3.20;;;;;;;;;;4811964;29;20402;-78
2023/10/16 06:22:59;;;;;;;5.50;2.35;;;;;;;;;;4820297;29;20541;-78
2023/10/16 06:25:47;;;;;;;4.75;2.90;;;;;;;;;;4821287;29;20053;-79
2023/10/16 06:28:33;;;;;;;13.90;7.85;;;;;;;;;;4820695;29;20494;-78
2023/10/16 06:31:22;;;;;;;10.77;3.38;;;;;;;;;;4826273;29;20062;-77
2023/10/16 06:34:11;;;;;;;11.52;6.53;;;;;;;;;;4825692;29;20072;-78
2023/10/16 06:36:56;;;;;;;14.18;6.75;;;;;;;;;;4812876;29;20405;-77
2023/10/16 06:39:42;;;;;;;10.25;6.00;;;;;;;;;;4813161;29;20069;-79
2023/10/16 06:42:29;;;;;;;255.02;155.13;;;;;;;;;;4826895;29;20064;-77
2023/10/16 06:45:22;;;;;;;142.75;78.15;;;;;;;;;;4826357;29;20135;-79
2023/10/16 06:48:15;;;;;;;15.82;7.38;;;;;;;;;;4827045;29;20406;-81
2023/10/16 06:51:04;;;;;;;48.88;32.95;;;;;;;;;;4829757;29;20556;-78
2023/10/16 06:53:49;;;;;;;17.77;11.25;;;;;;;;;;4829784;29;20124;-78
2023/10/16 06:56:35;;;;;;;10.75;6.03;;;;;;;;;;4831201;29;20080;-78
2023/10/16 06:59:21;;;;;;;5.32;3.25;;;;;;;;;;4830230;29;20406;-78
2023/10/16 07:02:08;;;;;;;13.13;3.08;;;;;;;;;;4829338;29;20403;-79
2023/10/16 07:04:54;;;;;;;2.85;1.70;;;;;;;;;;4809585;29;20137;-77
2023/10/16 07:07:39;;;;;;;7.65;2.50;;;;;;;;;;4823114;29;20038;-80
2023/10/16 07:10:25;;;;;;;7.85;2.53;;;;;;;;;;4824415;29;20053;-79
2023/10/16 07:13:10;;;;;;;4.55;2.25;;;;;;;;;;4824629;29;20485;-79
2023/10/16 07:16:02;;;;;;;5.85;2.50;;;;;;;;;;4823930;29;20490;-77
2023/10/16 07:18:53;;;;;;;5.93;2.20;;;;;;;;;;4823819;29;20053;-77
2023/10/16 07:21:41;;;;;;;4.13;2.03;;;;;;;;;;4829989;29;20053;-78
2023/10/16 07:24:26;;;;;;;5.22;2.58;;;;;;;;;;4827207;29;20046;-78
2023/10/16 07:27:14;;;;;;;3.33;1.90;;;;;;;;;;4828234;29;20386;-79
2023/10/16 07:29:59;;;;;;;6.72;2.80;;;;;;;;;;4828307;29;20070;-79
2023/10/16 07:32:45;;;;;;;5.18;1.77;;;;;;;;;;4829835;29;20808;-77
2023/10/16 07:35:30;;;;;;;8.38;2.28;;;;;;;;;;4822579;29;20063;-77
2023/10/16 07:38:23;;;;;;;6.00;2.13;;;;;;;;;;4821300;29;20466;-79
2023/10/16 07:41:11;;;;;;;4.43;2.22;;;;;;;;;;4823561;29;20065;-77
2023/10/16 07:43:56;;;;;;;6.28;2.00;;;;;;;;;;4829370;29;20049;-79
2023/10/16 07:46:44;;;;;;;5.30;1.70;;;;;;;;;;4823752;29;20041;-78
2023/10/16 07:49:29;;;;;;;4.20;1.83;;;;;;;;;;4830806;29;20061;-76
2023/10/16 07:52:15;;;;;;;5.68;2.47;;;;;;;;;;4826843;29;20053;-79
2023/10/16 07:55:03;;;;;;;6.88;2.30;;;;;;;;;;4826987;29;20049;-79
2023/10/16 07:57:48;;;;;;;5.03;2.45;;;;;;;;;;4828874;29;20485;-79
2023/10/16 08:00:41;;;;;;;6.60;1.98;;;;;;;;;;4832069;29;20050;-78
2023/10/16 08:03:26;;;;;;;5.45;2.00;;;;;;;;;;4818770;29;20498;-79
2023/10/16 08:06:17;;;;;;;6.70;2.10;;;;;;;;;;4826023;29;20050;-77
2023/10/16 08:12:18;;;;;;;3.92;2.08;;;;;;;;;;4831912;29;20049;-78
2023/10/16 08:15:14;;;;;;;5.40;2.30;;;;;;;;;;4831747;29;20053;-77
2023/10/16 08:17:59;;;;;;;12.57;2.50;;;;;;;;;;4832372;29;20046;-76
2023/10/16 08:21:01;;;;;;;3.05;1.70;;;;;;;;;;4812594;29;20049;-78
2023/10/16 08:23:46;;;;;;;4.47;2.13;;;;;;;;;;4826000;29;20458;-77
2023/10/16 08:26:42;;;;;;;7.32;2.47;;;;;;;;;;4829872;29;20053;-78
2023/10/16 08:29:34;;;;;;;4.32;1.95;;;;;;;;;;4833130;29;20466;-79
2023/10/16 08:35:22;;;;;;;6.90;2.30;;;;;;;;;;4826447;29;20045;-75
2023/10/16 08:38:17;;;;;;;4.70;1.92;;;;;;;;;;4832029;29;20407;-80
2023/10/16 08:41:14;;;;;;;7.60;2.10;;;;;;;;;;4830158;29;20536;-77
2023/10/16 08:44:05;;;;;;;4.72;2.17;;;;;;;;;;4826192;29;20387;-77
2023/10/16 08:47:16;;;;;;;6.78;2.95;;;;;;;;;;4831355;29;20053;-78
2023/10/16 08:49:59;;;;;;;7.22;2.53;;;;;;;;;;4827077;29;20049;-78
2023/10/16 08:52:50;;;;;;;6.80;2.28;;;;;;;;;;4826980;29;20049;-79
2023/10/16 08:55:35;;;;;;;5.30;1.95;;;;;;;;;;4832273;29;20439;-81
2023/10/16 08:58:20;;;;;;;6.22;2.42;;;;;;;;;;4832416;29;20389;-79
2023/10/16 09:01:07;;;;;;;2.85;1.77;;;;;;;;;;4831473;29;20049;-80
2023/10/16 09:04:01;;;;;;;3.35;1.83;;;;;;;;;;4827870;29;20478;-80
2023/10/16 09:06:46;;;;;;;5.15;2.03;;;;;;;;;;4831361;29;20520;-77
2023/10/16 09:09:32;;;;;;;5.97;1.80;;;;;;;;;;4826326;29;20050;-79
2023/10/16 09:12:28;;;;;;;4.30;1.80;;;;;;;;;;4831406;29;20367;-80
2023/10/16 09:15:22;;;;;;;5.40;1.70;;;;;;;;;;4826730;29;20053;-80
2023/10/16 09:18:09;;;;;;;3.90;1.60;;;;;;;;;;4833049;29;20049;-80
2023/10/16 09:21:00;;;;;;;4.18;1.50;;;;;;;;;;4826422;29;20050;-78
2023/10/16 09:23:51;;;;;;;4.43;1.80;;;;;;;;;;4812259;29;20045;-78
2023/10/16 09:26:44;;;;;;;4.90;1.70;;;;;;;;;;4832128;29;20042;-79
2023/10/16 09:29:35;;;;;;;3.63;1.50;;;;;;;;;;4810808;29;20049;-80
2023/10/16 09:32:34;;;;;;;3.50;1.50;;;;;;;;;;4831016;29;20038;-76
2023/10/16 09:35:30;;;;;;;3.47;1.80;;;;;;;;;;4825094;29;20053;-78
2023/10/16 09:38:18;;;;;;;4.28;1.90;;;;;;;;;;4825208;29;20049;-82
2023/10/16 09:42:11;;;;;;;4.45;1.67;;;;;;;;;;4824094;29;20038;-79
2023/10/16 09:44:22;;;;;;;4.82;1.70;;;;;;;;;;4806409;29;20054;-78
2023/10/16 09:47:27;;;;;;;3.90;1.63;;;;;;;;;;4832990;29;20041;-78
2023/10/16 09:50:21;;;;;;;3.53;1.60;;;;;;;;;;4830155;29;20049;-79
2023/10/16 09:53:07;;;;;;;2.22;1.48;;;;;;;;;;4819822;29;20053;-79
2023/10/16 09:55:58;;;;;;;2.97;1.70;;;;;;;;;;4816460;29;20057;-80
2023/10/16 09:58:51;;;;;;;2.75;1.48;;;;;;;;;;4831239;29;20403;-79
2023/10/16 10:01:42;;;;;;;5.93;1.75;;;;;;;;;;4811476;29;20062;-79
2023/10/16 10:04:32;;;;;;;5.20;2.00;;;;;;;;;;4824231;29;20061;-79
2023/10/16 10:07:20;;;;;;;4.35;1.70;;;;;;;;;;4831932;29;20061;-78
2023/10/16 10:13:24;;;;;;;3.97;1.73;;;;;;;;;;4830465;29;20049;-78
2023/10/16 10:16:20;;;;;;;4.45;2.33;;;;;;;;;;4816551;29;20058;-78
2023/10/16 10:19:19;;;;;;;3.20;1.80;;;;;;;;;;4824284;29;20049;-79
2023/10/16 10:22:12;;;;;;;5.68;2.47;;;;;;;;;;4830098;29;20042;-78
2023/10/16 10:25:13;;;;;;;5.82;2.25;;;;;;;;;;4826937;29;20049;-80
2023/10/16 10:28:09;;;;;;;5.22;1.70;;;;;;;;;;4831465;29;20053;-77
2023/10/16 10:30:58;;;;;;;4.40;1.60;;;;;;;;;;4824178;29;20856;-78
2023/10/16 10:34:13;;;;;;;5.70;1.80;;;;;;;;;;4830106;29;20045;-78
2023/10/16 10:36:51;;;;;;;4.90;1.70;;;;;;;;;;4830459;29;20045;-79
2023/10/16 10:39:39;;;;;;;5.35;2.25;;;;;;;;;;4815909;29;20418;-79
2023/10/16 10:42:37;;;;;;;3.25;1.90;;;;;;;;;;4830993;29;20057;-78
2023/10/16 10:45:36;;;;;;;6.10;2.35;;;;;;;;;;4823848;29;20033;-80
2023/10/16 10:48:24;;;;;;;5.00;1.75;;;;;;;;;;4824859;29;20089;-78
2023/10/16 10:51:14;;;;;;;3.55;2.20;;;;;;;;;;4830566;29;20462;-78
2023/10/16 10:54:06;;;;;;;5.55;2.35;;;;;;;;;;4832269;29;20402;-77
2023/10/16 10:56:53;;;;;;;2.97;1.65;;;;;;;;;;4825617;29;20049;-80
2023/10/16 10:59:47;;;;;;;3.85;1.98;;;;;;;;;;4830257;29;20493;-80
2023/10/16 11:05:25;;;;;;;6.80;2.53;;;;;;;;;;4817655;29;20058;-77
2023/10/16 11:10:56;;;;;;;;;;;;;;;;;;4831193;29;20541;-77
2023/10/16 11:13:45;;;;;;;2.60;1.55;;;;;;;;;;4830072;29;19924;-80
2023/10/16 11:16:30;;;;;;;6.75;1.80;;;;;;;;;;4816003;29;20054;-79
2023/10/16 11:19:38;;;;;;;4.00;1.80;;;;;;;;;;4829162;29;20054;-79
2023/10/16 11:22:27;;;;;;;4.15;1.80;;;;;;;;;;4830799;29;20045;-77
2023/10/16 11:25:13;;;;;;;4.78;1.85;;;;;;;;;;4826779;29;20049;-80
2023/10/16 11:28:07;;;;;;;3.30;1.67;;;;;;;;;;4823821;29;20375;-78
2023/10/16 11:30:55;;;;;;;2.25;1.55;;;;;;;;;;4830257;29;20240;-79
2023/10/16 11:34:00;;;;;;;4.30;1.52;;;;;;;;;;4830896;29;20499;-77
2023/10/16 11:36:50;;;;;;;6.80;2.42;;;;;;;;;;4812851;29;20482;-82
2023/10/16 11:39:35;;;;;;;4.28;1.60;;;;;;;;;;4833176;29;20125;-78
2023/10/16 11:42:20;;;;;;;3.75;1.60;;;;;;;;;;4833038;29;20050;-79
2023/10/16 11:45:18;;;;;;;3.00;2.03;;;;;;;;;;4832474;29;20054;-78
2023/10/16 11:48:27;;;;;;;4.95;2.50;;;;;;;;;;4832088;29;20041;-79
2023/10/16 11:51:18;;;;;;;4.22;2.20;;;;;;;;;;4833189;29;20057;-78
2023/10/16 11:54:08;;;;;;;3.30;1.80;;;;;;;;;;4832759;29;20046;-79
2023/10/16 11:56:56;;;;;;;3.85;2.10;;;;;;;;;;4831880;29;20517;-79
2023/10/16 11:59:41;;;;;;;6.68;2.10;;;;;;;;;;4832525;29;20054;-78
2023/10/16 12:02:29;;;;;;;5.05;1.60;;;;;;;;;;4826321;29;20049;-78
2023/10/16 12:05:14;;;;;;;4.93;1.77;;;;;;;;;;4832514;29;20390;-81
2023/10/16 12:08:02;;;;;;;4.88;1.58;;;;;;;;;;4818428;29;20049;-79
2023/10/16 12:10:48;;;;;;;3.08;1.67;;;;;;;;;;4832396;29;20038;-80
2023/10/16 12:13:33;;;;;;;2.58;1.50;;;;;;;;;;4826597;29;20046;-79
2023/10/16 12:16:24;;;;;;;3.70;1.88;;;;;;;;;;4826503;29;20061;-79
2023/10/16 12:19:11;;;;;;;4.28;1.48;;;;;;;;;;4813611;29;20065;-79
2023/10/16 12:22:00;;;;;;;3.10;1.70;;;;;;;;;;4832389;29;20462;-82
2023/10/16 12:24:45;;;;;;;3.47;1.80;;;;;;;;;;4826057;29;20415;-80
2023/10/16 12:27:31;;;;;;;3.75;1.70;;;;;;;;;;4834592;29;20045;-82
2023/10/16 12:30:17;;;;;;;5.30;1.70;;;;;;;;;;4830305;29;20046;-79
2023/10/16 12:33:09;;;;;;;3.72;1.83;;;;;;;;;;4835084;29;20413;-79
2023/10/16 12:35:55;;;;;;;4.90;2.80;;;;;;;;;;4836176;29;20425;-78
2023/10/16 12:38:40;;;;;;;2.47;1.50;;;;;;;;;;4830807;29;20053;-78
2023/10/16 12:41:26;;;;;;;4.82;2.10;;;;;;;;;;4829163;29;20489;-80
2023/10/16 12:44:17;;;;;;;6.03;1.85;;;;;;;;;;4836253;29;20037;-77
2023/10/16 12:47:03;;;;;;;3.30;1.52;;;;;;;;;;4829036;29;20045;-80
2023/10/16 12:49:48;;;;;;;4.22;1.60;;;;;;;;;;4835305;29;20053;-80
2023/10/16 12:52:34;;;;;;;2.63;1.50;;;;;;;;;;4839296;29;20046;-80
2023/10/16 12:55:22;;;;;;;7.38;1.60;;;;;;;;;;4839131;29;20046;-82
2023/10/16 12:58:13;;;;;;;2.67;1.60;;;;;;;;;;4831189;29;20405;-77
2023/10/16 13:01:05;;;;;;;4.65;1.42;;;;;;;;;;4836718;29;20049;-79
2023/10/16 13:03:50;;;;;;;3.63;1.40;;;;;;;;;;4830058;29;20466;-78
2023/10/16 13:06:35;;;;;;;3.70;1.70;;;;;;;;;;4821663;29;20401;-78
2023/10/16 13:09:22;;;;;;;2.67;1.60;;;;;;;;;;4828750;29;20067;-78
2023/10/16 13:12:08;;;;;;;3.50;1.80;;;;;;;;;;4835622;29;20045;-79
2023/10/16 13:14:57;;;;;;;3.13;1.50;;;;;;;;;;4833842;29;20414;-79
2023/10/16 13:17:48;;;;;;;3.45;1.60;;;;;;;;;;4835307;29;20049;-80
2023/10/16 13:20:36;;;;;;;3.85;1.50;;;;;;;;;;4835580;29;20049;-78
2023/10/16 13:23:21;;;;;;;2.75;1.73;;;;;;;;;;4834579;29;20041;-78
2023/10/16 13:26:08;;;;;;;4.07;1.67;;;;;;;;;;4829589;29;20053;-79
2023/10/16 13:28:53;;;;;;;4.43;1.67;;;;;;;;;;4828976;29;20041;-79
2023/10/16 13:31:41;;;;;;;3.28;1.90;;;;;;;;;;4835319;29;20475;-77
2023/10/16 13:34:26;;;;;;;3.92;2.05;;;;;;;;;;4835386;29;20104;-79
2023/10/16 13:37:11;;;;;;;5.45;2.40;;;;;;;;;;4833846;29;20045;-79
2023/10/16 13:39:57;;;;;;;4.78;2.00;;;;;;;;;;4835958;29;20049;-78
2023/10/16 13:42:43;;;;;;;3.50;1.58;;;;;;;;;;4829975;29;20038;-78
2023/10/16 13:45:29;;;;;;;4.97;1.98;;;;;;;;;;4830028;29;20454;-80
2023/10/16 13:48:16;;;;;;;9.23;2.92;;;;;;;;;;4828914;29;20462;-78
2023/10/16 13:51:04;;;;;;;3.72;1.70;;;;;;;;;;4831134;29;20402;-77
2023/10/16 13:53:52;;;;;;;6.97;2.78;;;;;;;;;;4813433;29;20771;-82
2023/10/16 13:56:42;;;;;;;6.10;3.00;;;;;;;;;;4828183;29;20045;-79
2023/10/16 13:59:27;;;;;;;8.68;2.85;;;;;;;;;;4828944;29;20045;-79
2023/10/16 14:02:13;;;;;;;6.15;2.08;;;;;;;;;;4832583;29;20053;-79
2023/10/16 14:04:58;;;;;;;2.72;1.60;;;;;;;;;;4828877;29;20061;-78
2023/10/16 14:07:44;;;;;;;4.43;2.15;;;;;;;;;;4830551;29;20053;-81
2023/10/16 14:10:29;;;;;;;4.03;1.70;;;;;;;;;;4829746;29;20431;-80
2023/10/16 14:13:20;;;;;;;4.53;1.85;;;;;;;;;;4814603;29;20045;-79
2023/10/16 14:16:10;;;;;;;4.70;1.95;;;;;;;;;;4829625;29;20041;-82
2023/10/16 14:18:56;;;;;;;4.90;2.35;;;;;;;;;;4825478;29;20053;-79
2023/10/16 14:21:42;;;;;;;5.15;2.90;;;;;;;;;;4828812;29;20487;-81
2023/10/16 14:24:27;;;;;;;5.88;2.42;;;;;;;;;;4828969;29;20467;-81
2023/10/16 14:27:20;;;;;;;4.25;2.03;;;;;;;;;;4827581;29;20565;-86
2023/10/16 14:30:10;;;;;;;7.30;2.38;;;;;;;;;;4829488;29;20054;-82
2023/10/16 14:32:56;;;;;;;5.32;2.03;;;;;;;;;;4823962;29;20053;-82
2023/10/16 14:35:41;;;;;;;6.80;2.67;;;;;;;;;;4830093;29;20050;-84
2023/10/16 14:38:28;;;;;;;4.88;1.88;;;;;;;;;;4815732;29;20397;-84
2023/10/16 14:41:15;;;;;;;5.72;2.25;;;;;;;;;;4823877;29;20413;-83
2023/10/16 14:44:04;;;;;;;2.72;1.70;;;;;;;;;;4828282;29;20481;-82
2023/10/16 14:46:49;;;;;;;5.22;2.40;;;;;;;;;;4824916;29;20053;-84
2023/10/16 14:49:35;;;;;;;4.03;2.13;;;;;;;;;;4831000;29;20058;-84
2023/10/16 14:52:21;;;;;;;5.93;1.95;;;;;;;;;;4823942;29;20045;-84
2023/10/16 14:55:08;;;;;;;3.53;1.73;;;;;;;;;;4837678;29;20471;-84
2023/10/16 14:57:58;;;;;;;4.20;1.83;;;;;;;;;;4812230;29;20049;-84
2023/10/16 15:00:45;;;;;;;4.20;1.92;;;;;;;;;;4829794;29;20410;-82
2023/10/16 15:03:30;;;;;;;3.17;1.70;;;;;;;;;;4825057;29;20502;-83
2023/10/16 15:06:16;;;;;;;8.23;3.35;;;;;;;;;;4834646;29;20397;-84
2023/10/16 15:09:09;;;;;;;15.27;6.82;;;;;;;;;;4814023;29;20046;-84
2023/10/16 15:11:54;;;;;;;9.45;2.97;;;;;;;;;;4830506;29;20634;-84
2023/10/16 15:14:40;;;;;;;3.25;1.77;;;;;;;;;;4832030;29;20058;-82
2023/10/16 15:17:26;;;;;;;5.95;1.92;;;;;;;;;;4824637;29;20421;-82
2023/10/16 15:20:15;;;;;;;5.03;2.00;;;;;;;;;;4836027;29;20486;-82
2023/10/16 15:23:03;;;;;;;5.47;2.03;;;;;;;;;;4830101;29;20421;-84
2023/10/16 15:25:48;;;;;;;5.22;2.03;;;;;;;;;;4832611;29;20526;-83
2023/10/16 15:28:35;;;;;;;5.47;2.20;;;;;;;;;;4836331;29;20057;-82
2023/10/16 15:31:21;;;;;;;6.05;2.92;;;;;;;;;;4827183;29;20406;-84
2023/10/16 15:34:08;;;;;;;8.35;2.70;;;;;;;;;;4826806;29;20049;-83
2023/10/16 15:36:53;;;;;;;5.93;2.35;;;;;;;;;;4832045;29;20046;-83
2023/10/16 15:39:39;;;;;;;7.78;2.80;;;;;;;;;;4832875;29;20053;-84
2023/10/16 15:42:24;;;;;;;5.93;2.75;;;;;;;;;;4805449;29;20053;-85
2023/10/16 15:45:11;;;;;;;8.52;3.33;;;;;;;;;;4832238;29;20069;-85
2023/10/16 15:48:00;;;;;;;7.68;3.65;;;;;;;;;;4825718;29;20746;-84
2023/10/16 15:50:48;;;;;;;7.45;2.80;;;;;;;;;;4825499;29;20053;-84
2023/10/16 15:53:33;;;;;;;6.28;3.40;;;;;;;;;;4826324;29;20050;-83
2023/10/16 15:56:21;;;;;;;9.40;3.42;;;;;;;;;;4832970;29;20041;-82
2023/10/16 15:59:07;;;;;;;6.55;3.20;;;;;;;;;;4826570;29;20057;-83
2023/10/16 16:01:53;;;;;;;8.15;3.30;;;;;;;;;;4825781;29;20041;-82
2023/10/16 16:04:39;;;;;;;10.90;5.35;;;;;;;;;;4819905;29;20058;-81
2023/10/16 16:07:26;;;;;;;13.43;4.65;;;;;;;;;;4828057;29;20037;-83
2023/10/16 16:10:11;;;;;;;14.38;5.97;;;;;;;;;;4826924;29;20399;-82
2023/10/16 16:12:59;;;;;;;12.43;7.30;;;;;;;;;;4832048;29;20506;-83
2023/10/16 16:15:45;;;;;;;12.05;6.35;;;;;;;;;;4820871;29;20054;-83
2023/10/16 16:18:30;;;;;;;22.23;11.02;;;;;;;;;;4830573;29;20053;-82
2023/10/16 16:21:16;;;;;;;22.25;10.98;;;;;;;;;;4813004;29;20054;-80
2023/10/16 16:24:03;;;;;;;21.85;13.23;;;;;;;;;;4828900;29;20418;-81
2023/10/16 16:26:49;;;;;;;31.35;18.33;;;;;;;;;;4820609;29;20393;-80
2023/10/16 16:29:36;;;;;;;33.88;18.08;;;;;;;;;;4811547;29;20050;-81
2023/10/16 16:32:23;;;;;;;38.67;21.02;;;;;;;;;;4835985;29;20050;-80
2023/10/16 16:35:08;;;;;;;36.13;19.70;;;;;;;;;;4831021;29;20057;-82
2023/10/16 16:37:55;;;;;;;36.17;20.02;;;;;;;;;;4833147;29;20049;-81
2023/10/16 16:40:41;;;;;;;38.67;21.98;;;;;;;;;;4825681;29;20053;-81
2023/10/16 16:43:27;;;;;;;46.80;25.45;;;;;;;;;;4832030;29;20486;-79
2023/10/16 16:46:12;;;;;;;69.93;32.38;;;;;;;;;;4817238;29;20413;-80
2023/10/16 16:49:01;;;;;;;61.15;31.30;;;;;;;;;;4835947;29;20042;-82
2023/10/16 16:51:48;;;;;;;86.43;43.75;;;;;;;;;;4832042;29;20049;-81
2023/10/16 16:54:34;;;;;;;43.08;23.30;;;;;;;;;;4812619;29;20054;-80
2023/10/16 16:57:21;;;;;;;33.90;18.10;;;;;;;;;;4834282;29;20038;-81
2023/10/16 17:00:12;;;;;;;32.83;17.98;;;;;;;;;;4833224;29;20413;-82
2023/10/16 17:02:59;;;;;;;29.58;13.30;;;;;;;;;;4830326;29;20050;-81
2023/10/16 17:05:46;;;;;;;22.67;12.63;;;;;;;;;;4818797;29;20409;-82
2023/10/16 17:08:32;;;;;;;22.83;13.00;;;;;;;;;;4826519;29;20050;-79
2023/10/16 17:11:17;;;;;;;19.88;10.43;;;;;;;;;;4831096;29;20045;-81
2023/10/16 17:14:04;;;;;;;19.23;10.38;;;;;;;;;;4833097;29;20053;-81
2023/10/16 17:16:51;;;;;;;19.73;11.65;;;;;;;;;;4832486;29;20041;-82
2023/10/16 17:19:38;;;;;;;22.38;12.48;;;;;;;;;;4826833;29;20046;-81
2023/10/16 17:22:23;;;;;;;17.45;9.88;;;;;;;;;;4831731;29;20049;-81
2023/10/16 17:25:11;;;;;;;19.10;9.57;;;;;;;;;;4799708;29;20521;-81
2023/10/16 17:27:56;;;;;;;17.25;9.13;;;;;;;;;;4829543;29;20046;-79
2023/10/16 17:30:41;;;;;;;18.95;11.13;;;;;;;;;;4831249;29;20050;-83
2023/10/16 17:33:27;;;;;;;17.67;9.88;;;;;;;;;;4832550;29;20050;-82
2023/10/16 17:36:15;;;;;;;19.10;11.00;;;;;;;;;;4831332;29;20053;-79
2023/10/16 17:39:06;;;;;;;20.90;12.10;;;;;;;;;;4827438;29;20061;-80
2023/10/16 17:41:52;;;;;;;25.00;13.35;;;;;;;;;;4834289;29;20402;-80
2023/10/16 17:44:37;;;;;;;27.02;16.23;;;;;;;;;;4833744;29;20083;-81
2023/10/16 17:47:23;;;;;;;33.40;18.35;;;;;;;;;;4831135;29;20487;-79
2023/10/16 17:50:08;;;;;;;51.97;26.58;;;;;;;;;;4828264;29;20049;-81
2023/10/16 17:52:55;;;;;;;52.40;29.30;;;;;;;;;;4830435;29;20050;-82
2023/10/16 17:55:42;;;;;;;66.90;32.67;;;;;;;;;;4830204;29;20753;-80
2023/10/16 17:58:27;;;;;;;61.78;32.53;;;;;;;;;;4830544;29;20053;-81
2023/10/16 18:01:13;;;;;;;59.83;30.23;;;;;;;;;;4831321;29;20049;-81
2023/10/16 18:03:58;;;;;;;56.70;29.25;;;;;;;;;;4823518;29;20046;-81
2023/10/16 18:06:45;;;;;;;53.35;29.05;;;;;;;;;;4829054;29;20500;-82
2023/10/16 18:09:34;;;;;;;57.42;32.05;;;;;;;;;;4827937;29;20467;-81
2023/10/16 18:12:22;;;;;;;69.78;38.53;;;;;;;;;;4830482;29;20053;-82
2023/10/16 18:15:09;;;;;;;53.38;28.67;;;;;;;;;;4830998;29;20045;-83
2023/10/16 18:17:54;;;;;;;46.78;25.00;;;;;;;;;;4830126;29;20409;-80
2023/10/16 18:20:40;;;;;;;30.25;17.90;;;;;;;;;;4831031;29;20053;-82
2023/10/16 18:23:26;;;;;;;26.90;14.35;;;;;;;;;;4830859;29;20053;-83
2023/10/16 18:26:14;;;;;;;23.17;12.15;;;;;;;;;;4829849;29;20050;-85
2023/10/16 18:29:01;;;;;;;20.92;11.57;;;;;;;;;;4828657;29;20049;-80
2023/10/16 18:31:48;;;;;;;19.88;11.23;;;;;;;;;;4823225;29;20537;-82